Terminal Aerodrome Forecast
Issued by NWS

Current Version | Previous Version | Text Only | Print | Product List | Glossary On
Versions: 1 2 3 4 5 6 7 8 9 10 11 12 13 14 15 16 17 18 19 20 21 22
000 FTUS41 KBOX 261725 TAFBAF TAF KBAF 261725Z 2618/2718 29012G23KT P6SM BKN040 FM270000 30008KT P6SM FEW050 FM270600 00000KT P6SM FEW250 FM271400 00000KT P6SM BKN100 FM271700 15003KT P6SM -RA OVC050=

USA.gov is the U.S. government's official web portal to all federal, state and local government web resources and services.